Time;durP1;ratioP1;P1;durP2;ratioP2;P2;SDS_P1;SDS_P2;PMS_P1;PMS_P2;Temp;Humidity;BMP_temperature;BMP_pressure;BME280_temperature;BME280_humidity;BME280_pressure;Samples;Min_cycle;Max_cycle;Signal;HPM_P1;HPM_P2
2021/12/08 00:01:19;;;;;;;13.80;9.30;;;;;;;7.37;72.85;98529.15;24486;1355;3026456;-61
2021/12/08 00:03:48;;;;;;;;;;;;;;;7.29;73.25;98531.79;24472;1354;3058534;-62
2021/12/08 00:06:17;;;;;;;14.50;9.90;;;;;;;7.06;74.12;98531.97;24474;1358;3026912;-63
2021/12/08 00:09:00;;;;;;;15.70;8.80;;;;;;;6.90;74.58;98528.38;24437;1360;3026440;-61
2021/12/08 00:14:17;;;;;;;14.90;9.00;;;;;;;7.78;71.19;98513.01;24465;1360;3052735;-60
2021/12/08 00:16:46;;;;;;;14.00;8.70;;;;;;;7.67;71.19;98511.95;24477;1358;3030716;-65
2021/12/08 00:19:15;;;;;;;15.40;9.60;;;;;;;7.46;71.39;98510.45;24479;1354;3055860;-65
2021/12/08 00:21:44;;;;;;;17.20;9.80;;;;;;;7.32;71.93;98512.06;24462;1355;3028732;-62
2021/12/08 00:24:13;;;;;;;15.80;9.70;;;;;;;7.13;72.50;98519.67;24455;1357;3026571;-62
2021/12/08 00:26:42;;;;;;;15.60;9.90;;;;;;;6.89;73.42;98526.87;24464;1354;3058282;-63
2021/12/08 00:29:11;;;;;;;14.80;9.90;;;;;;;6.72;74.04;98518.98;24454;1358;3026792;-61
2021/12/08 00:31:41;;;;;;;17.00;9.40;;;;;;;6.61;74.63;98521.93;24491;1351;3051484;-66
2021/12/08 00:34:09;;;;;;;12.20;8.70;;;;;;;7.07;73.59;98524.58;24485;1357;3026990;-64
2021/12/08 00:36:43;;;;;;;14.90;8.60;;;;;;;7.54;71.64;98526.91;24439;1357;3027103;-65
2021/12/08 00:39:12;;;;;;;17.10;11.20;;;;;;;7.62;71.10;98533.39;24461;1358;3052499;-63
2021/12/08 00:41:41;;;;;;;18.80;11.70;;;;;;;7.39;71.56;98533.04;24440;1357;3027419;-64
2021/12/08 00:44:11;;;;;;;17.70;12.10;;;;;;;7.15;72.14;98529.08;24447;1359;3054934;-62
2021/12/08 00:46:40;;;;;;;18.10;11.50;;;;;;;6.84;73.08;98545.41;24489;1357;3026242;-65
2021/12/08 00:49:11;;;;;;;19.40;11.80;;;;;;;6.71;73.36;98546.92;24478;1354;3048477;-64
2021/12/08 00:51:40;;;;;;;14.20;9.30;;;;;;;6.59;73.72;98537.34;24477;1358;3026774;-61
2021/12/08 00:54:09;;;;;;;17.80;11.60;;;;;;;6.43;74.08;98531.33;24477;1357;3026876;-63
2021/12/08 00:56:38;;;;;;;17.60;9.90;;;;;;;6.34;74.57;98535.48;24469;1357;3048224;-65
2021/12/08 00:59:07;;;;;;;16.00;9.20;;;;;;;6.83;73.39;98542.67;24465;1355;3027636;-63
2021/12/08 01:01:37;;;;;;;14.90;10.10;;;;;;;7.34;71.27;98524.81;24460;1360;3070816;-64
2021/12/08 01:04:09;;;;;;;15.50;10.80;;;;;;;7.29;70.77;98521.27;24447;1354;3026526;-61
2021/12/08 01:06:39;;;;;;;14.80;10.50;;;;;;;7.03;71.15;98531.43;24455;1357;3027977;-63
2021/12/08 01:09:09;;;;;;;16.80;11.10;;;;;;;6.68;72.25;98545.34;24467;1357;3028938;-63
2021/12/08 01:11:38;;;;;;;20.50;13.10;;;;;;;6.55;72.96;98541.24;24515;1354;3048392;-61
2021/12/08 01:14:07;;;;;;;16.00;12.30;;;;;;;6.44;73.32;98531.23;24454;1360;3027224;-64
2021/12/08 01:16:36;;;;;;;16.60;12.10;;;;;;;6.24;73.56;98536.59;24488;1359;3026530;-65
2021/12/08 01:19:05;;;;;;;18.80;12.50;;;;;;;6.01;74.14;98549.86;24443;1355;3048771;-62
2021/12/08 01:21:34;;;;;;;16.20;8.00;;;;;;;5.83;74.88;98544.94;24465;1357;3026559;-64
2021/12/08 01:24:03;;;;;;;17.10;7.90;;;;;;;6.20;73.80;98533.38;24458;1360;3070387;-63
2021/12/08 01:26:32;;;;;;;11.70;9.00;;;;;;;6.61;72.15;98538.27;24426;1357;3026709;-63
2021/12/08 01:29:03;;;;;;;12.20;9.20;;;;;;;6.60;71.87;98542.70;24451;1354;3028209;-66
2021/12/08 01:31:32;;;;;;;14.40;9.70;;;;;;;6.33;72.47;98537.49;24494;1354;3068079;-60
2021/12/08 01:34:03;;;;;;;16.20;10.50;;;;;;;6.16;73.08;98535.32;24448;1357;3027038;-61
2021/12/08 01:36:33;;;;;;;14.00;11.40;;;;;;;5.85;73.98;98539.27;24466;1357;3028323;-64
2021/12/08 01:39:04;;;;;;;17.40;12.80;;;;;;;5.77;74.65;98539.03;24516;1354;3026621;-65
2021/12/08 01:41:33;;;;;;;16.00;12.20;;;;;;;5.61;75.06;98537.63;24490;1356;3028598;-67
2021/12/08 01:46:57;;;;;;;13.20;8.80;;;;;;;6.14;74.01;98540.29;24471;1358;3053518;-61
2021/12/08 01:49:26;;;;;;;13.10;8.60;;;;;;;6.35;72.55;98526.75;24486;1355;3051344;-63
2021/12/08 01:51:55;;;;;;;12.10;9.40;;;;;;;6.21;72.55;98526.84;24454;1358;3026277;-62
2021/12/08 01:54:24;;;;;;;14.50;10.00;;;;;;;6.20;72.78;98531.79;24449;1357;3026907;-62
2021/12/08 01:56:53;;;;;;;17.20;11.00;;;;;;;6.04;73.36;98540.33;24442;1357;3050918;-63
2021/12/08 01:59:22;;;;;;;14.70;9.40;;;;;;;5.87;73.84;98540.92;24439;1357;3026692;-65
2021/12/08 02:01:51;;;;;;;12.50;8.50;;;;;;;5.73;74.32;98537.36;24481;1354;3052175;-66
2021/12/08 02:04:20;;;;;;;12.50;8.60;;;;;;;5.60;74.92;98533.90;24492;1358;3026952;-64
2021/12/08 02:06:49;;;;;;;9.40;5.90;;;;;;;5.48;75.64;98529.15;24446;1354;3047949;-62
2021/12/08 02:09:18;;;;;;;11.20;6.50;;;;;;;6.04;74.22;98521.71;24460;1358;3026805;-64
2021/12/08 02:11:52;;;;;;;9.20;5.90;;;;;;;6.51;72.44;98510.15;24456;1354;3058133;-65
2021/12/08 02:14:21;;;;;;;10.40;5.90;;;;;;;6.42;72.14;98507.40;24464;1355;3050209;-63
2021/12/08 02:16:55;;;;;;;11.10;6.00;;;;;;;6.26;72.59;98502.08;24467;1355;3028448;-64
2021/12/08 02:19:24;;;;;;;12.80;10.20;;;;;;;6.08;73.18;98501.67;24490;1354;3054518;-64
2021/12/08 02:21:53;;;;;;;16.70;12.20;;;;;;;5.86;73.93;98503.05;24443;1358;3026084;-63
2021/12/08 02:24:22;;;;;;;16.30;11.80;;;;;;;5.60;75.22;98503.67;24440;1361;3053266;-63
2021/12/08 02:26:52;;;;;;;22.40;13.80;;;;;;;5.50;75.45;98501.06;24479;1354;3026229;-66
2021/12/08 02:29:32;;;;;;;15.30;9.70;;;;;;;5.48;75.82;98506.21;24456;1354;3026853;-62
2021/12/08 02:48:48;;;;;;;16.30;11.90;;;;;;;5.48;76.26;98494.42;24494;1354;3053911;-65
2021/12/08 02:51:17;;;;;;;12.20;7.40;;;;;;;5.33;77.08;98495.95;24457;1355;3026497;-64
2021/12/08 02:53:47;;;;;;;14.90;7.30;;;;;;;5.89;75.78;98500.13;24472;1361;3052442;-64
2021/12/08 02:56:16;;;;;;;14.00;9.50;;;;;;;6.30;74.08;98495.89;24486;1354;3026725;-64
2021/12/08 02:58:46;;;;;;;14.60;9.70;;;;;;;6.32;73.80;98493.03;24488;1348;3026546;-64
2021/12/08 03:01:19;;;;;;;17.80;11.00;;;;;;;6.20;74.00;98489.16;24503;1354;3026876;-64
2021/12/08 03:03:48;;;;;;;16.10;11.20;;;;;;;6.09;74.53;98487.34;24466;1354;3029042;-63
2021/12/08 03:06:17;;;;;;;19.20;10.80;;;;;;;5.90;75.30;98491.02;24483;1360;3026813;-64
2021/12/08 03:08:47;;;;;;;17.20;11.70;;;;;;;5.81;75.74;98488.43;24489;1354;3027006;-65
2021/12/08 03:11:17;;;;;;;13.00;8.20;;;;;;;5.74;76.06;98485.02;24463;1354;3028528;-65
2021/12/08 03:14:09;;;;;;;13.10;8.50;;;;;;;6.16;75.17;98478.77;24461;1354;3027228;-62
2021/12/08 03:16:43;;;;;;;14.10;9.20;;;;;;;6.62;73.40;98471.07;24459;1354;3059357;-63
2021/12/08 03:19:12;;;;;;;;;;;;;;;6.65;73.12;98474.70;24475;1350;3053742;-65
2021/12/08 03:21:42;;;;;;;16.30;10.60;;;;;;;6.48;73.62;98480.05;24486;1354;3026778;-62
2021/12/08 03:26:49;;;;;;;18.40;11.00;;;;;;;6.05;75.26;98472.63;24211;1354;3027268;-64
2021/12/08 03:32:03;;;;;;;18.80;12.00;;;;;;;5.79;76.43;98460.22;24484;1361;3051117;-64
2021/12/08 03:34:36;;;;;;;12.00;7.40;;;;;;;5.61;77.39;98463.46;24517;1354;3071210;-62
2021/12/08 03:37:06;;;;;;;12.50;8.10;;;;;;;6.21;75.67;98453.81;24474;1360;3027751;-64
2021/12/08 03:39:35;;;;;;;14.80;8.60;;;;;;;6.66;73.92;98456.74;24460;1354;3026599;-63
2021/12/08 03:42:04;;;;;;;12.20;8.10;;;;;;;6.64;73.78;98460.29;24457;1354;3026933;-65
2021/12/08 03:44:34;;;;;;;10.70;7.40;;;;;;;6.54;73.96;98466.80;24454;1358;3026514;-63
2021/12/08 03:47:12;;;;;;;13.50;6.80;;;;;;;6.36;74.43;98465.98;24459;1360;3054698;-65
2021/12/08 03:49:43;;;;;;;10.60;6.70;;;;;;;6.14;75.47;98466.38;24462;1354;3055307;-62
2021/12/08 03:52:12;;;;;;;16.10;9.20;;;;;;;6.07;75.77;98466.27;24501;1354;3026409;-63
2021/12/08 03:54:40;;;;;;;11.10;6.50;;;;;;;5.94;76.66;98468.77;24498;1354;3026362;-62
2021/12/08 03:57:11;;;;;;;11.80;7.50;;;;;;;6.37;75.72;98458.98;24463;1354;3052342;-64
2021/12/08 03:59:40;;;;;;;10.00;6.90;;;;;;;6.75;73.87;98460.33;24521;1361;3026757;-64
2021/12/08 04:02:09;;;;;;;11.60;7.20;;;;;;;6.80;73.62;98451.49;24461;1354;3027634;-64
2021/12/08 04:04:46;;;;;;;10.50;6.90;;;;;;;6.73;73.70;98457.18;24446;1354;3054192;-66
2021/12/08 04:07:18;;;;;;;14.30;8.20;;;;;;;6.35;74.95;98458.04;24439;1358;3059251;-60
2021/12/08 04:09:48;;;;;;;14.20;7.90;;;;;;;6.22;75.56;98460.17;24479;1354;3026518;-63
2021/12/08 04:12:19;;;;;;;15.50;10.30;;;;;;;6.10;76.33;98462.83;24440;1354;3026986;-63
2021/12/08 04:14:49;;;;;;;15.70;7.80;;;;;;;6.08;76.55;98463.95;24489;1360;3027246;-62
2021/12/08 04:17:27;;;;;;;15.70;10.00;;;;;;;6.63;75.31;98464.41;24471;1360;3027110;-63
2021/12/08 04:19:57;;;;;;;14.80;9.30;;;;;;;7.11;73.16;98463.39;24466;1354;3049528;-62
2021/12/08 04:22:37;;;;;;;13.80;9.20;;;;;;;7.18;72.75;98466.09;24451;1359;3028893;-63
2021/12/08 04:25:11;;;;;;;13.20;8.20;;;;;;;6.98;73.13;98466.58;24475;1354;3052888;-64
2021/12/08 04:27:41;;;;;;;16.00;10.90;;;;;;;6.76;74.06;98462.74;24466;1355;3055892;-66
2021/12/08 04:30:27;;;;;;;15.30;10.80;;;;;;;6.54;75.10;98464.22;24458;1359;3026132;-61
2021/12/08 04:32:56;;;;;;;17.80;12.50;;;;;;;6.25;76.19;98462.48;24433;1354;3053688;-63
2021/12/08 04:35:25;;;;;;;13.60;8.70;;;;;;;6.12;76.94;98459.75;24440;1357;3028963;-66
2021/12/08 04:37:58;;;;;;;13.70;9.00;;;;;;;6.64;75.69;98458.08;24480;1359;3049885;-64
2021/12/08 04:40:59;;;;;;;16.20;10.40;;;;;;;6.98;74.13;98458.94;24477;1360;3026755;-63
2021/12/08 04:43:51;;;;;;;17.30;11.00;;;;;;;6.96;74.00;98444.66;24473;1358;3054360;-63
2021/12/08 04:46:46;;;;;;;17.50;11.00;;;;;;;6.78;74.56;98438.73;24465;1355;3068941;-66
2021/12/08 04:52:02;;;;;;;13.20;7.90;;;;;;;6.41;75.99;98438.56;24467;1354;3053308;-62
2021/12/08 05:08:40;;;;;;;11.30;7.70;;;;;;;7.01;74.15;98429.36;24457;1362;3070430;-64
2021/12/08 05:11:27;;;;;;;11.60;7.30;;;;;;;6.80;74.93;98434.33;24494;1354;3052386;-65
2021/12/08 05:14:03;;;;;;;17.40;10.70;;;;;;;6.53;76.05;98436.26;24442;1358;3054979;-64
2021/12/08 05:16:35;;;;;;;10.80;6.70;;;;;;;6.39;76.84;98441.80;24448;1355;3056152;-67
2021/12/08 05:19:07;;;;;;;12.70;7.60;;;;;;;6.90;75.51;98435.42;24446;1360;3026537;-66
2021/12/08 05:21:38;;;;;;;16.50;9.60;;;;;;;7.25;74.04;98430.64;24493;1359;3027220;-64
2021/12/08 05:24:10;;;;;;;15.80;9.90;;;;;;;7.25;73.97;98421.75;24478;1354;3027382;-64
2021/12/08 05:26:41;;;;;;;17.70;12.00;;;;;;;7.02;74.61;98414.45;24455;1354;3026442;-64
2021/12/08 05:29:15;;;;;;;18.60;13.00;;;;;;;6.78;75.64;98429.38;24478;1354;3026217;-64
2021/12/08 05:31:44;;;;;;;21.50;14.40;;;;;;;6.60;76.47;98432.70;24462;1360;3052018;-67
2021/12/08 05:34:13;;;;;;;22.30;13.70;;;;;;;6.50;76.88;98426.89;24471;1361;3026491;-63
2021/12/08 05:36:44;;;;;;;20.00;9.50;;;;;;;6.34;77.60;98427.98;24446;1361;3070301;-61
2021/12/08 05:39:16;;;;;;;16.40;9.60;;;;;;;6.96;76.14;98438.90;24451;1354;3026691;-64
2021/12/08 05:41:48;;;;;;;17.90;11.60;;;;;;;7.27;74.67;98437.82;24460;1357;3053260;-67
2021/12/08 05:44:17;;;;;;;22.70;13.40;;;;;;;7.46;73.81;98434.36;24458;1360;3027033;-67
2021/12/08 05:46:48;;;;;;;21.60;13.50;;;;;;;7.21;74.31;98437.50;24475;1354;3026571;-65
2021/12/08 05:49:20;;;;;;;21.60;13.70;;;;;;;6.95;75.52;98438.60;24480;1357;3054259;-64
2021/12/08 05:51:50;;;;;;;19.10;12.60;;;;;;;6.78;76.20;98439.79;24435;1354;3026661;-65
2021/12/08 05:54:25;;;;;;;24.50;15.20;;;;;;;6.72;76.31;98451.79;24493;1358;3026275;-65
2021/12/08 05:56:54;;;;;;;18.90;9.90;;;;;;;6.64;77.03;98450.39;24516;1352;3052344;-66
2021/12/08 05:59:23;;;;;;;19.90;9.50;;;;;;;7.09;75.89;98448.19;24461;1357;3026340;-66
2021/12/08 06:02:02;;;;;;;19.20;10.80;;;;;;;7.44;74.25;98444.40;24468;1361;3048229;-65
2021/12/08 06:04:32;;;;;;;19.90;13.20;;;;;;;7.29;74.41;98440.65;24459;1361;3055312;-66
2021/12/08 06:07:01;;;;;;;22.40;13.00;;;;;;;7.05;75.22;98440.61;24391;1359;3028922;-63
2021/12/08 06:09:30;;;;;;;22.60;12.60;;;;;;;6.80;76.16;98451.50;24476;1361;3049419;-65
2021/12/08 06:12:00;;;;;;;22.80;15.10;;;;;;;6.76;76.52;98460.83;24441;1358;3026717;-64
2021/12/08 06:14:32;;;;;;;18.60;9.80;;;;;;;6.66;77.05;98466.32;24464;1358;3026031;-64
2021/12/08 06:17:07;;;;;;;15.70;9.60;;;;;;;7.06;76.05;98463.65;24452;1360;3027637;-65
2021/12/08 06:19:37;;;;;;;16.50;10.60;;;;;;;7.42;74.56;98461.23;24463;1357;3050008;-62
2021/12/08 06:22:08;;;;;;;17.80;11.20;;;;;;;7.58;73.92;98457.11;24493;1357;3026925;-65
2021/12/08 06:24:37;;;;;;;19.90;11.70;;;;;;;7.39;74.13;98450.33;24477;1360;3025990;-65
2021/12/08 06:27:06;;;;;;;18.40;12.20;;;;;;;7.03;75.53;98450.60;24433;1360;3026655;-64
2021/12/08 06:29:36;;;;;;;18.50;13.80;;;;;;;6.97;76.04;98458.30;24493;1357;3055597;-63
2021/12/08 06:32:08;;;;;;;22.30;15.50;;;;;;;6.92;76.36;98465.21;24459;1354;3027316;-63
2021/12/08 06:34:37;;;;;;;19.20;9.90;;;;;;;6.86;76.99;98465.44;24456;1358;3026809;-64
2021/12/08 06:37:12;;;;;;;16.30;10.00;;;;;;;7.47;75.24;98458.47;24453;1357;3029618;-64
2021/12/08 06:39:49;;;;;;;17.60;11.70;;;;;;;7.80;73.48;98458.64;24498;1360;3052452;-63
2021/12/08 06:42:23;;;;;;;19.90;13.70;;;;;;;7.78;73.32;98455.79;24469;1347;3052202;-65
2021/12/08 06:44:52;;;;;;;19.20;12.90;;;;;;;7.65;73.67;98460.85;24454;1355;3056569;-65
2021/12/08 06:47:23;;;;;;;20.80;13.60;;;;;;;7.51;74.03;98454.95;24438;1357;3026541;-64
2021/12/08 06:49:53;;;;;;;21.60;13.00;;;;;;;7.37;74.67;98450.40;24473;1357;3053000;-65
2021/12/08 06:52:25;;;;;;;22.10;12.70;;;;;;;7.17;75.42;98452.20;24482;1358;3026261;-63
2021/12/08 06:54:58;;;;;;;20.00;10.50;;;;;;;7.09;75.84;98448.20;24454;1360;3026356;-64
2021/12/08 06:57:33;;;;;;;15.50;9.10;;;;;;;7.55;74.50;98442.80;24479;1358;3027139;-67
2021/12/08 07:00:20;;;;;;;16.60;10.20;;;;;;;7.79;73.22;98440.96;24473;1355;3051815;-68
2021/12/08 07:03:44;;;;;;;18.70;12.20;;;;;;;7.75;73.37;98451.11;24478;1362;3071532;-64
2021/12/08 07:08:43;;;;;;;25.20;14.30;;;;;;;7.59;73.89;98460.47;24457;1362;3055018;-66
2021/12/08 07:11:13;;;;;;;19.60;13.10;;;;;;;7.36;74.85;98464.95;24474;1358;3052435;-65
2021/12/08 07:13:43;;;;;;;21.70;15.50;;;;;;;7.22;75.44;98472.09;24448;1356;3028454;-66
2021/12/08 07:16:15;;;;;;;15.50;8.80;;;;;;;7.24;75.70;98475.11;24474;1355;3028116;-64
2021/12/08 07:18:58;;;;;;;18.40;10.40;;;;;;;7.68;74.28;98472.64;24484;1358;3026560;-63
2021/12/08 07:21:32;;;;;;;24.10;12.40;;;;;;;8.15;72.45;98474.11;24478;1355;3051635;-65
2021/12/08 07:24:28;;;;;;;21.40;11.10;;;;;;;8.09;72.28;98475.42;24466;1361;3071788;-63
2021/12/08 07:27:00;;;;;;;21.30;10.70;;;;;;;7.81;73.24;98470.63;24461;1359;3049071;-65
2021/12/08 07:29:39;;;;;;;18.30;12.40;;;;;;;7.70;73.39;98464.56;24434;1359;3055586;-64
2021/12/08 07:32:21;;;;;;;20.40;12.90;;;;;;;7.59;73.83;98464.35;24498;1360;3027305;-68
2021/12/08 07:34:51;;;;;;;19.60;12.40;;;;;;;7.45;74.50;98458.08;24496;1358;3060516;-66
2021/12/08 07:37:28;;;;;;;17.20;9.60;;;;;;;7.53;74.31;98460.52;24434;1358;3026336;-63
2021/12/08 07:40:13;;;;;;;24.00;10.60;;;;;;;8.05;72.88;98456.63;24477;1354;3052206;-64
2021/12/08 07:42:48;;;;;;;22.20;10.10;;;;;;;8.55;70.67;98451.94;24445;1361;3052515;-64
2021/12/08 07:45:22;;;;;;;14.40;10.00;;;;;;;8.52;70.47;98445.71;24422;1354;3025998;-61
2021/12/08 07:47:52;;;;;;;18.20;12.50;;;;;;;8.38;70.96;98448.70;24469;1360;3048826;-64
2021/12/08 07:50:23;;;;;;;18.90;11.70;;;;;;;8.18;71.47;98454.76;24481;1358;3026789;-67
2021/12/08 07:52:53;;;;;;;22.50;13.00;;;;;;;8.12;71.98;98458.14;24490;1359;3027170;-65
2021/12/08 07:55:26;;;;;;;21.80;13.50;;;;;;;8.09;72.14;98448.72;24445;1355;3029923;-65
2021/12/08 07:57:55;;;;;;;24.90;14.10;;;;;;;7.92;72.76;98442.89;24457;1354;3027887;-63
2021/12/08 08:00:49;;;;;;;17.90;8.60;;;;;;;7.78;73.21;98444.63;24459;1354;3027806;-67
2021/12/08 08:03:19;;;;;;;17.00;10.30;;;;;;;8.25;71.77;98440.81;24436;1354;3058959;-65
2021/12/08 08:05:49;;;;;;;17.00;10.90;;;;;;;8.58;70.74;98439.16;24486;1356;3026519;-65
2021/12/08 08:08:21;;;;;;;18.70;11.10;;;;;;;8.57;70.35;98438.35;24490;1354;3026576;-66
2021/12/08 08:10:58;;;;;;;19.10;10.80;;;;;;;8.37;71.11;98439.50;24476;1358;3026227;-64
2021/12/08 08:13:34;;;;;;;18.20;12.30;;;;;;;8.26;71.49;98436.05;24418;1357;3070909;-66
2021/12/08 08:16:12;;;;;;;17.30;12.10;;;;;;;8.17;71.91;98434.42;24438;1357;3026475;-65
2021/12/08 08:18:45;;;;;;;16.60;10.50;;;;;;;8.10;72.10;98434.55;24480;1355;3052346;-63
2021/12/08 08:21:20;;;;;;;17.70;12.10;;;;;;;7.97;72.50;98438.69;24456;1357;3026845;-63
2021/12/08 08:23:49;;;;;;;18.00;9.90;;;;;;;7.97;72.75;98444.49;24447;1355;3058519;-65
2021/12/08 08:26:19;;;;;;;20.50;9.40;;;;;;;8.64;71.17;98440.16;24440;1360;3026822;-64
2021/12/08 08:28:50;;;;;;;15.50;9.20;;;;;;;9.14;69.19;98440.90;24448;1355;3026970;-63
2021/12/08 08:31:32;;;;;;;16.00;9.90;;;;;;;9.02;68.76;98440.33;24444;1357;3056109;-65
2021/12/08 08:34:01;;;;;;;15.60;11.40;;;;;;;9.02;68.89;98438.91;24460;1363;3052499;-67
2021/12/08 08:36:32;;;;;;;18.90;12.00;;;;;;;8.82;69.41;98434.05;24508;1357;3026969;-66
2021/12/08 08:39:27;;;;;;;21.00;11.60;;;;;;;8.65;70.08;98429.98;24431;1357;3057050;-64
2021/12/08 08:42:00;;;;;;;18.80;11.50;;;;;;;8.56;70.50;98418.70;24424;1362;3049623;-66
2021/12/08 08:44:34;;;;;;;21.90;13.30;;;;;;;8.50;70.64;98419.30;24468;1355;3027382;-63
2021/12/08 08:47:07;;;;;;;24.00;13.40;;;;;;;8.43;71.38;98415.71;24422;1355;3051024;-65
2021/12/08 08:49:36;;;;;;;20.40;8.80;;;;;;;8.39;71.49;98421.80;24441;1357;3026722;-67
2021/12/08 08:52:18;;;;;;;23.70;7.90;;;;;;;8.94;70.17;98417.80;24430;1355;3026638;-66
2021/12/08 08:54:49;;;;;;;18.70;10.50;;;;;;;9.47;68.11;98423.35;24443;1357;3050969;-63
2021/12/08 08:57:21;;;;;;;21.40;10.70;;;;;;;9.55;67.76;98411.74;24427;1355;3030455;-65
2021/12/08 08:59:54;;;;;;;19.00;10.80;;;;;;;9.48;67.82;98405.95;24458;1361;3028753;-65
2021/12/08 09:02:27;;;;;;;16.30;10.20;;;;;;;9.29;68.38;98413.75;24429;1357;3026923;-64
2021/12/08 09:05:00;;;;;;;17.50;11.20;;;;;;;9.11;68.93;98414.51;24454;1361;3026658;-68
2021/12/08 09:07:34;;;;;;;20.70;13.80;;;;;;;9.00;69.38;98419.84;24445;1357;3051179;-65
2021/12/08 09:10:08;;;;;;;21.70;13.10;;;;;;;8.81;70.16;98412.62;24451;1357;3071829;-66
2021/12/08 09:12:49;;;;;;;16.90;11.70;;;;;;;8.68;70.55;98406.58;24436;1354;3051628;-65
2021/12/08 09:15:33;;;;;;;19.20;10.90;;;;;;;8.55;71.11;98413.39;24450;1359;3051254;-68
2021/12/08 09:18:08;;;;;;;14.70;9.00;;;;;;;8.56;70.94;98417.00;24444;1347;3053329;-65
2021/12/08 09:20:53;;;;;;;13.10;7.60;;;;;;;9.07;69.63;98416.73;24479;1360;3059350;-63
2021/12/08 09:23:31;;;;;;;14.50;7.40;;;;;;;9.60;67.98;98409.61;24472;1354;3049929;-65
2021/12/08 09:26:07;;;;;;;15.30;7.30;;;;;;;9.61;67.65;98404.64;24454;1354;3056136;-67
2021/12/08 09:28:43;;;;;;;13.40;8.00;;;;;;;9.34;68.30;98411.65;24469;1354;3027063;-64
2021/12/08 09:31:18;;;;;;;17.30;8.10;;;;;;;9.07;69.18;98412.34;24455;1354;3071504;-59
2021/12/08 09:34:03;;;;;;;14.50;7.80;;;;;;;8.92;69.75;98405.92;24453;1354;3048422;-64
2021/12/08 09:36:39;;;;;;;13.40;8.20;;;;;;;8.84;70.09;98399.02;24455;1356;3055038;-61
2021/12/08 09:39:24;;;;;;;14.80;8.30;;;;;;;8.87;70.14;98403.27;24509;1354;3052710;-64
2021/12/08 09:41:59;;;;;;;15.20;8.50;;;;;;;8.71;70.91;98399.17;24489;1354;3057800;-66
2021/12/08 09:44:31;;;;;;;9.80;6.00;;;;;;;8.64;71.45;98402.29;24469;1359;3026392;-65
2021/12/08 09:47:00;;;;;;;11.40;6.50;;;;;;;9.25;69.88;98404.95;24524;1354;3030382;-62
2021/12/08 09:49:29;;;;;;;15.30;6.70;;;;;;;9.73;67.98;98402.70;24465;1354;3026941;-64
2021/12/08 09:51:59;;;;;;;12.40;7.10;;;;;;;9.74;67.84;98399.36;24445;1358;3052232;-62
2021/12/08 09:54:28;;;;;;;16.10;7.50;;;;;;;9.66;67.93;98400.73;24464;1360;3026792;-65
2021/12/08 09:56:59;;;;;;;15.30;8.10;;;;;;;9.57;68.10;98400.02;24492;1354;3026846;-63
2021/12/08 09:59:30;;;;;;;16.30;9.70;;;;;;;9.32;69.06;98407.17;24482;1354;3049719;-62
2021/12/08 10:02:03;;;;;;;16.90;10.10;;;;;;;9.18;69.57;98401.65;24457;1354;3027045;-67
2021/12/08 10:04:32;;;;;;;21.90;10.50;;;;;;;9.11;69.73;98397.95;24470;1354;3027340;-66
2021/12/08 10:07:03;;;;;;;20.50;11.20;;;;;;;8.92;70.54;98393.18;24485;1357;3026648;-66
2021/12/08 10:09:31;;;;;;;16.80;9.40;;;;;;;8.80;71.19;98388.96;24460;1357;3052818;-64
2021/12/08 10:12:01;;;;;;;19.20;7.00;;;;;;;8.76;71.46;98393.07;24463;1354;3026507;-66
2021/12/08 10:14:33;;;;;;;13.50;8.10;;;;;;;9.32;70.35;98389.27;24463;1358;3052988;-65
2021/12/08 10:17:02;;;;;;;14.60;6.90;;;;;;;9.88;68.29;98388.00;24446;1354;3026416;-69
2021/12/08 10:19:31;;;;;;;15.10;8.20;;;;;;;10.08;67.49;98382.45;24491;1359;3026584;-67
2021/12/08 10:22:00;;;;;;;11.20;7.80;;;;;;;10.05;67.42;98386.48;24451;1358;3049776;-65
2021/12/08 10:24:29;;;;;;;16.60;9.40;;;;;;;9.98;67.61;98382.55;24446;1354;3030119;-65
2021/12/08 10:27:07;;;;;;;15.90;9.10;;;;;;;9.84;68.03;98381.84;24449;1361;3058161;-64
2021/12/08 10:29:36;;;;;;;18.50;10.30;;;;;;;9.69;68.62;98381.31;24468;1361;3052866;-67
2021/12/08 10:32:07;;;;;;;21.20;10.30;;;;;;;9.66;68.74;98377.52;24470;1354;3028418;-66
2021/12/08 10:34:47;;;;;;;22.10;13.00;;;;;;;9.60;69.24;98379.89;24467;1355;3026164;-67
2021/12/08 10:37:19;;;;;;;19.20;13.70;;;;;;;9.54;69.51;98368.98;24487;1355;3068465;-67
2021/12/08 10:39:52;;;;;;;17.50;11.90;;;;;;;9.54;69.55;98370.23;24465;1361;3030116;-67
2021/12/08 10:42:23;;;;;;;15.10;7.80;;;;;;;9.60;69.26;98372.56;24591;1357;3026787;-62
2021/12/08 10:45:02;;;;;;;14.50;8.30;;;;;;;10.12;68.29;98366.92;24520;1357;3028057;-66
2021/12/08 10:47:41;;;;;;;20.90;8.50;;;;;;;10.54;66.41;98357.10;24491;1357;3059885;-66
2021/12/08 10:56:15;;;;;;;18.20;6.30;;;;;;;10.23;66.87;98353.87;24451;1355;3051634;-65
2021/12/08 10:58:49;;;;;;;11.90;6.30;;;;;;;10.11;67.18;98353.55;24471;1361;3070623;-65
2021/12/08 11:01:21;;;;;;;11.70;6.40;;;;;;;9.97;67.74;98349.71;24563;1355;3051633;-64
2021/12/08 11:03:57;;;;;;;10.90;5.60;;;;;;;9.76;68.56;98349.89;24536;1355;3027155;-65
2021/12/08 11:06:30;;;;;;;10.80;6.00;;;;;;;9.64;69.05;98356.54;24471;1358;3054110;-64
2021/12/08 11:08:59;;;;;;;10.60;6.20;;;;;;;9.59;69.42;98356.34;24497;1358;3057335;-67
2021/12/08 11:11:32;;;;;;;15.00;6.30;;;;;;;9.51;69.77;98359.75;24447;1355;3029810;-61
2021/12/08 11:14:03;;;;;;;16.90;7.40;;;;;;;9.47;69.66;98353.61;24445;1355;3051417;-66
2021/12/08 11:16:35;;;;;;;11.40;5.30;;;;;;;9.40;70.25;98349.52;24489;1357;3026700;-64
2021/12/08 11:19:09;;;;;;;13.30;4.80;;;;;;;9.95;69.00;98345.61;24426;1359;3027049;-66
2021/12/08 11:21:40;;;;;;;9.60;5.60;;;;;;;10.54;66.96;98338.52;24523;1361;3028403;-64
2021/12/08 11:24:16;;;;;;;9.90;5.30;;;;;;;10.67;66.71;98338.74;24501;1355;3026727;-65
2021/12/08 11:26:50;;;;;;;12.00;5.20;;;;;;;10.48;66.75;98332.89;24186;1354;3387803;-66
2021/12/08 11:29:24;;;;;;;13.60;6.50;;;;;;;10.37;67.05;98333.00;24475;1356;3049002;-64
2021/12/08 11:31:56;;;;;;;13.30;6.30;;;;;;;10.12;67.92;98333.30;24536;1355;3055641;-66
2021/12/08 11:34:42;;;;;;;11.10;6.70;;;;;;;9.97;68.69;98332.58;24492;1357;3026404;-61
2021/12/08 11:37:16;;;;;;;10.70;6.60;;;;;;;9.73;69.56;98335.41;24416;1355;3056336;-65
2021/12/08 11:39:48;;;;;;;11.10;6.30;;;;;;;9.67;69.88;98328.52;24462;1355;3049714;-69
2021/12/08 11:42:25;;;;;;;14.20;6.60;;;;;;;9.61;70.24;98328.95;24482;1355;3026488;-66
2021/12/08 11:44:57;;;;;;;12.60;4.70;;;;;;;9.56;70.40;98324.08;24460;1358;3050339;-64
2021/12/08 11:47:32;;;;;;;8.80;3.90;;;;;;;10.03;69.42;98329.12;24481;1354;3028790;-70
2021/12/08 11:50:16;;;;;;;10.90;4.60;;;;;;;10.58;67.64;98328.05;24471;1354;3049601;-65
2021/12/08 11:52:46;;;;;;;8.50;4.90;;;;;;;10.57;67.41;98324.10;24479;1359;3054651;-65
2021/12/08 11:55:16;;;;;;;9.30;5.20;;;;;;;10.43;67.69;98329.23;24488;1361;3027669;-65
2021/12/08 11:57:56;;;;;;;8.40;4.80;;;;;;;10.21;68.47;98327.05;24527;1361;3049076;-64
2021/12/08 12:00:34;;;;;;;10.30;5.40;;;;;;;10.07;68.84;98331.39;24486;1355;3052434;-66
2021/12/08 12:03:09;;;;;;;9.40;5.50;;;;;;;9.82;69.67;98329.83;24482;1358;3051286;-63
2021/12/08 12:05:43;;;;;;;10.10;5.30;;;;;;;9.66;70.46;98324.73;24491;1358;3058962;-65
2021/12/08 12:08:17;;;;;;;14.70;5.30;;;;;;;9.56;70.73;98327.08;24463;1354;3055833;-60
2021/12/08 12:10:53;;;;;;;10.30;5.40;;;;;;;9.47;71.14;98326.14;24506;1358;3056016;-62
2021/12/08 12:14:12;;;;;;;10.20;4.60;;;;;;;9.44;71.32;98324.98;17865;1357;3032575;-69
2021/12/08 12:16:41;;;;;;;12.60;4.90;;;;;;;10.18;69.27;98330.11;24582;1356;3069937;-61
2021/12/08 12:26:41;;;;;;;17.10;5.70;;;;;;;10.07;69.13;98332.13;24087;1360;3086263;-64
2021/12/08 12:29:36;;;;;;;14.30;5.80;;;;;;;9.86;70.02;98331.79;24514;1355;3048683;-66
2021/12/08 12:32:12;;;;;;;14.10;6.60;;;;;;;9.73;70.55;98337.65;24416;1355;3052324;-63
2021/12/08 12:34:41;;;;;;;19.50;6.00;;;;;;;9.58;71.07;98338.42;24417;1348;3051559;-67
2021/12/08 12:37:13;;;;;;;11.10;5.70;;;;;;;9.48;71.58;98344.23;24440;1360;3026760;-63
2021/12/08 12:39:50;;;;;;;10.30;5.00;;;;;;;9.50;71.74;98349.23;24451;1362;3054741;-65
2021/12/08 12:42:19;;;;;;;14.10;4.90;;;;;;;10.13;70.34;98349.18;24462;1356;3055946;-65